sensor_id;sensor_type;location;lat;lon;timestamp;pressure;altitude;pressure_sealevel;temperature;humidity
73338;BME280;61575;49.908;35.556;2023-10-13T00:01:34;99187.19;;;10.74;83.22
73338;BME280;61575;49.908;35.556;2023-10-13T00:04:36;99189.72;;;10.76;83.22
73338;BME280;61575;49.908;35.556;2023-10-13T00:07:38;99189.22;;;10.72;83.54
73338;BME280;61575;49.908;35.556;2023-10-13T00:10:41;99187.19;;;10.74;83.45
73338;BME280;61575;49.908;35.556;2023-10-13T00:13:44;99183.31;;;10.77;83.03
73338;BME280;61575;49.908;35.556;2023-10-13T00:16:55;99183.50;;;10.75;83.12
73338;BME280;61575;49.908;35.556;2023-10-13T00:20:07;99182.19;;;10.71;83.29
73338;BME280;61575;49.908;35.556;2023-10-13T00:23:29;99178.34;;;10.66;83.86
73338;BME280;61575;49.908;35.556;2023-10-13T00:26:34;99179.69;;;10.70;83.63
73338;BME280;61575;49.908;35.556;2023-10-13T00:29:38;99181.72;;;10.68;83.88
73338;BME280;61575;49.908;35.556;2023-10-13T00:32:41;99173.66;;;10.68;83.78
73338;BME280;61575;49.908;35.556;2023-10-13T00:35:44;99186.72;;;10.71;83.69
73338;BME280;61575;49.908;35.556;2023-10-13T00:38:48;99185.06;;;10.70;83.60
73338;BME280;61575;49.908;35.556;2023-10-13T00:41:53;99190.59;;;10.68;84.09
73338;BME280;61575;49.908;35.556;2023-10-13T00:45:00;99190.09;;;10.65;84.59
73338;BME280;61575;49.908;35.556;2023-10-13T00:48:03;99184.53;;;10.66;84.78
73338;BME280;61575;49.908;35.556;2023-10-13T00:51:15;99184.91;;;10.63;84.90
73338;BME280;61575;49.908;35.556;2023-10-13T00:54:24;99183.59;;;10.59;84.54
73338;BME280;61575;49.908;35.556;2023-10-13T00:57:29;99182.94;;;10.57;84.97
73338;BME280;61575;49.908;35.556;2023-10-13T01:00:34;99187.28;;;10.58;84.79
73338;BME280;61575;49.908;35.556;2023-10-13T01:03:50;99183.59;;;10.59;84.69
73338;BME280;61575;49.908;35.556;2023-10-13T01:06:58;99177.38;;;10.58;84.63
73338;BME280;61575;49.908;35.556;2023-10-13T01:10:01;99178.94;;;10.53;85.43
73338;BME280;61575;49.908;35.556;2023-10-13T01:13:06;99182.94;;;10.57;85.17
73338;BME280;61575;49.908;35.556;2023-10-13T01:16:09;99178.09;;;10.52;86.31
73338;BME280;61575;49.908;35.556;2023-10-13T01:19:16;99185.97;;;10.54;85.64
73338;BME280;61575;49.908;35.556;2023-10-13T01:22:27;99195.34;;;10.58;85.53
73338;BME280;61575;49.908;35.556;2023-10-13T01:25:32;99183.94;;;10.56;85.73
73338;BME280;61575;49.908;35.556;2023-10-13T01:28:35;99181.91;;;10.58;85.55
73338;BME280;61575;49.908;35.556;2023-10-13T01:31:46;99180.25;;;10.57;85.77
73338;BME280;61575;49.908;35.556;2023-10-13T01:34:48;99173.03;;;10.57;85.82
73338;BME280;61575;49.908;35.556;2023-10-13T01:37:51;99165.97;;;10.56;86.12
73338;BME280;61575;49.908;35.556;2023-10-13T01:40:53;99175.03;;;10.55;86.61
73338;BME280;61575;49.908;35.556;2023-10-13T01:43:59;99177.72;;;10.55;86.37
73338;BME280;61575;49.908;35.556;2023-10-13T01:47:01;99183.47;;;10.52;86.38
73338;BME280;61575;49.908;35.556;2023-10-13T01:50:09;99199.56;;;10.52;86.50
73338;BME280;61575;49.908;35.556;2023-10-13T01:53:22;99190.38;;;10.47;87.02
73338;BME280;61575;49.908;35.556;2023-10-13T01:56:24;99186.69;;;10.48;86.64
73338;BME280;61575;49.908;35.556;2023-10-13T01:59:27;99181.13;;;10.49;86.91
73338;BME280;61575;49.908;35.556;2023-10-13T02:02:29;99189.34;;;10.48;86.89
73338;BME280;61575;49.908;35.556;2023-10-13T02:05:32;99187.88;;;10.45;86.67
73338;BME280;61575;49.908;35.556;2023-10-13T02:08:38;99187.03;;;10.45;87.19
73338;BME280;61575;49.908;35.556;2023-10-13T02:11:44;99196.94;;;10.44;87.36
73338;BME280;61575;49.908;35.556;2023-10-13T02:14:49;99188.69;;;10.46;87.03
73338;BME280;61575;49.908;35.556;2023-10-13T02:17:52;99188.75;;;10.38;87.77
73338;BME280;61575;49.908;35.556;2023-10-13T02:21:02;99189.91;;;10.43;87.31
73338;BME280;61575;49.908;35.556;2023-10-13T02:24:07;99193.59;;;10.42;87.21
73338;BME280;61575;49.908;35.556;2023-10-13T02:27:15;99193.94;;;10.39;87.98
73338;BME280;61575;49.908;35.556;2023-10-13T02:30:17;99183.88;;;10.41;87.88
73338;BME280;61575;49.908;35.556;2023-10-13T02:33:25;99183.88;;;10.41;87.85
73338;BME280;61575;49.908;35.556;2023-10-13T02:36:36;99174.78;;;10.42;88.20
73338;BME280;61575;49.908;35.556;2023-10-13T02:39:45;99163.53;;;10.47;87.79
73338;BME280;61575;49.908;35.556;2023-10-13T02:42:47;99165.03;;;10.49;87.81
73338;BME280;61575;49.908;35.556;2023-10-13T02:45:53;99162.34;;;10.49;87.72
73338;BME280;61575;49.908;35.556;2023-10-13T02:49:02;99180.59;;;10.54;88.04
73338;BME280;61575;49.908;35.556;2023-10-13T02:52:13;99181.13;;;10.49;88.04
73338;BME280;61575;49.908;35.556;2023-10-13T02:55:15;99184.47;;;10.51;88.06
73338;BME280;61575;49.908;35.556;2023-10-13T02:58:26;99171.06;;;10.51;88.41
73338;BME280;61575;49.908;35.556;2023-10-13T03:01:39;99173.91;;;10.50;88.75
73338;BME280;61575;49.908;35.556;2023-10-13T03:04:41;99178.94;;;10.53;88.41
73338;BME280;61575;49.908;35.556;2023-10-13T03:07:43;99180.59;;;10.54;88.11
73338;BME280;61575;49.908;35.556;2023-10-13T03:10:45;99182.28;;;10.55;88.19
73338;BME280;61575;49.908;35.556;2023-10-13T03:13:50;99172.19;;;10.57;88.15
73338;BME280;61575;49.908;35.556;2023-10-13T03:16:55;99177.72;;;10.55;88.59
73338;BME280;61575;49.908;35.556;2023-10-13T03:20:05;99180.25;;;10.57;88.40
73338;BME280;61575;49.908;35.556;2023-10-13T03:23:08;99186.28;;;10.59;88.17
73338;BME280;61575;49.908;35.556;2023-10-13T03:26:11;99186.63;;;10.56;88.87
73338;BME280;61575;49.908;35.556;2023-10-13T03:29:13;99177.19;;;10.60;88.30
73338;BME280;61575;49.908;35.556;2023-10-13T03:32:23;99174.50;;;10.60;88.25
73338;BME280;61575;49.908;35.556;2023-10-13T03:35:28;99173.69;;;10.59;88.51
73338;BME280;61575;49.908;35.556;2023-10-13T03:38:39;99174.50;;;10.60;88.28
73338;BME280;61575;49.908;35.556;2023-10-13T03:41:41;99175.53;;;10.59;88.57
73338;BME280;61575;49.908;35.556;2023-10-13T03:44:47;99171.16;;;10.58;88.60
73338;BME280;61575;49.908;35.556;2023-10-13T03:47:49;99169.81;;;10.62;88.67
73338;BME280;61575;49.908;35.556;2023-10-13T03:51:01;99172.00;;;10.58;88.75
73338;BME280;61575;49.908;35.556;2023-10-13T03:54:10;99184.41;;;10.59;88.88
73338;BME280;61575;49.908;35.556;2023-10-13T03:57:12;99179.53;;;10.63;88.59
73338;BME280;61575;49.908;35.556;2023-10-13T04:00:15;99173.31;;;10.63;88.63
73338;BME280;61575;49.908;35.556;2023-10-13T04:03:23;99187.41;;;10.65;88.78
73338;BME280;61575;49.908;35.556;2023-10-13T04:06:35;99190.28;;;10.63;88.62
73338;BME280;61575;49.908;35.556;2023-10-13T04:09:49;99205.53;;;10.63;89.03
73338;BME280;61575;49.908;35.556;2023-10-13T04:12:51;99204.53;;;10.64;89.12
73338;BME280;61575;49.908;35.556;2023-10-13T04:16:11;99205.53;;;10.63;89.47
73338;BME280;61575;49.908;35.556;2023-10-13T04:19:37;99203.69;;;10.63;89.28
73338;BME280;61575;49.908;35.556;2023-10-13T04:22:59;99210.41;;;10.67;89.29
73338;BME280;61575;49.908;35.556;2023-10-13T04:26:05;99212.75;;;10.70;89.20
73338;BME280;61575;49.908;35.556;2023-10-13T04:29:12;99219.59;;;10.73;89.14
73338;BME280;61575;49.908;35.556;2023-10-13T04:32:29;99220.44;;;10.73;89.36
73338;BME280;61575;49.908;35.556;2023-10-13T04:35:32;99222.94;;;10.75;89.35
73338;BME280;61575;49.908;35.556;2023-10-13T04:38:37;99226.94;;;10.79;89.01
73338;BME280;61575;49.908;35.556;2023-10-13T04:41:57;99229.47;;;10.80;89.36
73338;BME280;61575;49.908;35.556;2023-10-13T04:44:59;99221.88;;;10.84;89.22
73338;BME280;61575;49.908;35.556;2023-10-13T04:48:17;99226.94;;;10.79;89.97
73338;BME280;61575;49.908;35.556;2023-10-13T04:51:43;99223.19;;;10.88;89.41
73338;BME280;61575;49.908;35.556;2023-10-13T04:55:14;99234.59;;;10.90;89.28
73338;BME280;61575;49.908;35.556;2023-10-13T04:58:34;99240.44;;;10.94;89.34
73338;BME280;61575;49.908;35.556;2023-10-13T05:01:55;99247.97;;;10.98;89.35
73338;BME280;61575;49.908;35.556;2023-10-13T05:05:16;99244.75;;;11.03;89.21
73338;BME280;61575;49.908;35.556;2023-10-13T05:08:27;99254.31;;;11.05;89.29
73338;BME280;61575;49.908;35.556;2023-10-13T05:11:48;99262.19;;;11.07;89.13
73338;BME280;61575;49.908;35.556;2023-10-13T05:15:08;99266.78;;;10.98;90.15
73338;BME280;61575;49.908;35.556;2023-10-13T05:18:29;99269.22;;;11.08;89.67
73338;BME280;61575;49.908;35.556;2023-10-13T05:21:49;99272.09;;;11.06;89.86
73338;BME280;61575;49.908;35.556;2023-10-13T05:25:10;99269.53;;;11.13;89.90
73338;BME280;61575;49.908;35.556;2023-10-13T05:28:30;99272.88;;;11.15;89.99
73338;BME280;61575;49.908;35.556;2023-10-13T05:31:51;99281.72;;;11.23;89.78
73338;BME280;61575;49.908;35.556;2023-10-13T05:35:12;99283.84;;;11.28;89.82
73338;BME280;61575;49.908;35.556;2023-10-13T05:38:33;99287.03;;;11.32;89.94
73338;BME280;61575;49.908;35.556;2023-10-13T05:41:53;99282.31;;;11.34;90.09
73338;BME280;61575;49.908;35.556;2023-10-13T05:45:14;99291.94;;;11.28;90.74
73338;BME280;61575;49.908;35.556;2023-10-13T05:48:19;99280.81;;;11.31;90.34
73338;BME280;61575;49.908;35.556;2023-10-13T05:51:36;99267.72;;;11.28;90.55
73338;BME280;61575;49.908;35.556;2023-10-13T05:54:38;99288.22;;;11.29;90.63
73338;BME280;61575;49.908;35.556;2023-10-13T05:57:58;99284.41;;;11.23;91.16
73338;BME280;61575;49.908;35.556;2023-10-13T06:01:21;99286.91;;;11.25;91.11
73338;BME280;61575;49.908;35.556;2023-10-13T06:04:41;99290.91;;;11.29;91.23
73338;BME280;61575;49.908;35.556;2023-10-13T06:08:02;99303.34;;;11.30;91.24
73338;BME280;61575;49.908;35.556;2023-10-13T06:11:23;99311.69;;;11.35;91.58
73338;BME280;61575;49.908;35.556;2023-10-13T06:14:47;99310.22;;;11.33;91.89
73338;BME280;61575;49.908;35.556;2023-10-13T06:18:08;99313.19;;;11.38;91.86
73338;BME280;61575;49.908;35.556;2023-10-13T06:21:30;99308.28;;;11.41;91.98
73338;BME280;61575;49.908;35.556;2023-10-13T06:24:50;99312.47;;;11.44;91.93
73338;BME280;61575;49.908;35.556;2023-10-13T06:28:10;99305.25;;;11.44;92.25
73338;BME280;61575;49.908;35.556;2023-10-13T06:31:31;99302.56;;;11.44;92.60
73338;BME280;61575;49.908;35.556;2023-10-13T06:34:37;99308.88;;;11.51;92.63
73338;BME280;61575;49.908;35.556;2023-10-13T06:37:48;99308.75;;;11.45;93.40
73338;BME280;61575;49.908;35.556;2023-10-13T06:40:50;99318.72;;;11.59;93.09
73338;BME280;61575;49.908;35.556;2023-10-13T06:43:54;99320.50;;;11.67;93.00
73338;BME280;61575;49.908;35.556;2023-10-13T06:47:02;99325.16;;;11.73;92.56
73338;BME280;61575;49.908;35.556;2023-10-13T06:50:06;99329.81;;;11.79;93.02
73338;BME280;61575;49.908;35.556;2023-10-13T06:53:17;99322.94;;;11.76;93.43
73338;BME280;61575;49.908;35.556;2023-10-13T06:56:19;99336.69;;;11.81;93.29
73338;BME280;61575;49.908;35.556;2023-10-13T06:59:24;99333.63;;;11.84;93.08
73338;BME280;61575;49.908;35.556;2023-10-13T07:02:29;99331.97;;;11.83;93.54
73338;BME280;61575;49.908;35.556;2023-10-13T07:05:39;99320.84;;;11.86;93.14
73338;BME280;61575;49.908;35.556;2023-10-13T07:08:43;99328.34;;;11.91;93.07
73338;BME280;61575;49.908;35.556;2023-10-13T07:11:53;99325.59;;;11.99;93.31
73338;BME280;61575;49.908;35.556;2023-10-13T07:14:55;99311.38;;;12.05;93.30
73338;BME280;61575;49.908;35.556;2023-10-13T07:18:16;99304.75;;;12.16;93.15
73338;BME280;61575;49.908;35.556;2023-10-13T07:21:25;99309.56;;;12.21;93.46
73338;BME280;61575;49.908;35.556;2023-10-13T07:24:34;99310.13;;;12.31;93.28
73338;BME280;61575;49.908;35.556;2023-10-13T07:27:41;99326.56;;;12.36;93.22
73338;BME280;61575;49.908;35.556;2023-10-13T07:30:44;99333.06;;;12.27;93.69
73338;BME280;61575;49.908;35.556;2023-10-13T07:34:12;99331.84;;;12.14;93.82
73338;BME280;61575;49.908;35.556;2023-10-13T07:37:33;99336.50;;;12.21;93.49
73338;BME280;61575;49.908;35.556;2023-10-13T07:40:35;99340.22;;;12.19;93.58
73338;BME280;61575;49.908;35.556;2023-10-13T07:43:37;99337.50;;;12.19;93.56
73338;BME280;61575;49.908;35.556;2023-10-13T07:46:39;99349.88;;;12.29;93.24
73338;BME280;61575;49.908;35.556;2023-10-13T07:49:41;99337.25;;;12.29;93.14
73338;BME280;61575;49.908;35.556;2023-10-13T07:52:43;99341.41;;;12.32;92.98
73338;BME280;61575;49.908;35.556;2023-10-13T07:56:06;99346.25;;;12.36;92.92
73338;BME280;61575;49.908;35.556;2023-10-13T07:59:10;99339.75;;;12.31;93.06
73338;BME280;61575;49.908;35.556;2023-10-13T08:02:12;99343.84;;;12.41;93.51
73338;BME280;61575;49.908;35.556;2023-10-13T08:05:15;99335.38;;;12.44;93.27
73338;BME280;61575;49.908;35.556;2023-10-13T08:08:38;99336.59;;;12.57;93.25
73338;BME280;61575;49.908;35.556;2023-10-13T08:11:40;99341.41;;;12.61;93.77
73338;BME280;61575;49.908;35.556;2023-10-13T08:14:42;99339.06;;;12.73;93.25
73338;BME280;61575;49.908;35.556;2023-10-13T08:17:47;99346.59;;;12.77;93.41
73338;BME280;61575;49.908;35.556;2023-10-13T08:20:53;99353.56;;;12.87;92.99
73338;BME280;61575;49.908;35.556;2023-10-13T08:23:56;99358.56;;;12.90;92.79
73338;BME280;61575;49.908;35.556;2023-10-13T08:26:57;99353.09;;;12.68;93.25
73338;BME280;61575;49.908;35.556;2023-10-13T08:30:19;99359.88;;;12.79;93.19
73338;BME280;61575;49.908;35.556;2023-10-13T08:33:31;99370.19;;;12.90;92.98
73338;BME280;61575;49.908;35.556;2023-10-13T08:36:34;99362.75;;;12.92;93.15
73338;BME280;61575;49.908;35.556;2023-10-13T08:39:40;99362.75;;;12.92;93.16
73338;BME280;61575;49.908;35.556;2023-10-13T08:43:17;99353.53;;;13.01;93.01
73338;BME280;61575;49.908;35.556;2023-10-13T08:46:20;99369.50;;;13.03;93.13
73338;BME280;61575;49.908;35.556;2023-10-13T08:49:32;99367.91;;;13.08;92.90
73338;BME280;61575;49.908;35.556;2023-10-13T08:52:41;99360.22;;;13.05;93.21
73338;BME280;61575;49.908;35.556;2023-10-13T08:55:55;99359.19;;;13.06;93.35
73338;BME280;61575;49.908;35.556;2023-10-13T08:59:16;99364.38;;;13.08;93.26
73338;BME280;61575;49.908;35.556;2023-10-13T09:02:24;99370.16;;;13.05;93.37
73338;BME280;61575;49.908;35.556;2023-10-13T09:05:45;99373.22;;;13.02;93.99
73338;BME280;61575;49.908;35.556;2023-10-13T09:09:06;99376.38;;;13.05;94.12
73338;BME280;61575;49.908;35.556;2023-10-13T09:12:23;99387.63;;;13.09;93.95
73338;BME280;61575;49.908;35.556;2023-10-13T09:15:37;99378.31;;;13.11;93.67
73338;BME280;61575;49.908;35.556;2023-10-13T09:19:02;99383.25;;;13.08;94.20
73338;BME280;61575;49.908;35.556;2023-10-13T09:22:06;99387.06;;;13.13;94.25
73338;BME280;61575;49.908;35.556;2023-10-13T09:25:08;99391.41;;;13.14;94.58
73338;BME280;61575;49.908;35.556;2023-10-13T09:28:15;99405.75;;;13.15;94.87
73338;BME280;61575;49.908;35.556;2023-10-13T09:31:22;99400.00;;;13.03;95.06
73338;BME280;61575;49.908;35.556;2023-10-13T09:34:28;99405.56;;;13.16;94.70
73338;BME280;61575;49.908;35.556;2023-10-13T09:37:37;99402.56;;;13.26;94.55
73338;BME280;61575;49.908;35.556;2023-10-13T09:40:39;99399.00;;;13.40;94.41
73338;BME280;61575;49.908;35.556;2023-10-13T09:43:48;99401.00;;;13.53;94.10
73338;BME280;61575;49.908;35.556;2023-10-13T09:46:54;99405.06;;;13.64;93.82
73338;BME280;61575;49.908;35.556;2023-10-13T09:50:08;99406.41;;;13.74;93.40
73338;BME280;61575;49.908;35.556;2023-10-13T09:53:16;99404.28;;;13.70;93.29
73338;BME280;61575;49.908;35.556;2023-10-13T09:56:25;99407.75;;;13.64;93.45
73338;BME280;61575;49.908;35.556;2023-10-13T09:59:42;99405.56;;;13.74;93.36
73338;BME280;61575;49.908;35.556;2023-10-13T10:02:54;99409.25;;;13.66;93.36
73338;BME280;61575;49.908;35.556;2023-10-13T10:06:01;99411.16;;;13.72;93.26
73338;BME280;61575;49.908;35.556;2023-10-13T10:09:18;99410.66;;;13.84;92.78
73338;BME280;61575;49.908;35.556;2023-10-13T10:15:35;99418.88;;;13.97;92.33
73338;BME280;61575;49.908;35.556;2023-10-13T10:18:37;99421.97;;;13.94;92.29
73338;BME280;61575;49.908;35.556;2023-10-13T10:21:41;99419.13;;;14.02;92.34
73338;BME280;61575;49.908;35.556;2023-10-13T10:24:43;99417.25;;;14.02;92.17
73338;BME280;61575;49.908;35.556;2023-10-13T10:27:53;99428.75;;;14.11;92.33
73338;BME280;61575;49.908;35.556;2023-10-13T10:31:07;99417.66;;;14.27;91.51
73338;BME280;61575;49.908;35.556;2023-10-13T10:34:15;99423.75;;;14.36;91.10
73338;BME280;61575;49.908;35.556;2023-10-13T10:37:20;99425.28;;;14.45;90.77
73338;BME280;61575;49.908;35.556;2023-10-13T10:40:22;99428.25;;;14.50;90.62
73338;BME280;61575;49.908;35.556;2023-10-13T10:43:44;99415.31;;;14.45;89.96
73338;BME280;61575;49.908;35.556;2023-10-13T10:46:49;99422.03;;;14.56;89.91
73338;BME280;61575;49.908;35.556;2023-10-13T10:49:59;99420.22;;;14.63;89.44
73338;BME280;61575;49.908;35.556;2023-10-13T10:53:22;99424.34;;;14.59;88.80
73338;BME280;61575;49.908;35.556;2023-10-13T10:56:35;99417.09;;;14.66;88.42
73338;BME280;61575;49.908;35.556;2023-10-13T10:59:38;99409.91;;;14.80;87.93
73338;BME280;61575;49.908;35.556;2023-10-13T11:02:40;99420.06;;;14.71;87.06
73338;BME280;61575;49.908;35.556;2023-10-13T11:05:46;99420.56;;;14.88;87.19
73338;BME280;61575;49.908;35.556;2023-10-13T11:08:48;99422.66;;;14.93;86.60
73338;BME280;61575;49.908;35.556;2023-10-13T11:11:54;99422.94;;;15.04;86.38
73338;BME280;61575;49.908;35.556;2023-10-13T11:15:05;99423.19;;;15.16;85.98
73338;BME280;61575;49.908;35.556;2023-10-13T11:18:17;99422.03;;;15.38;85.74
73338;BME280;61575;49.908;35.556;2023-10-13T11:21:29;99429.09;;;15.33;83.10
73338;BME280;61575;49.908;35.556;2023-10-13T11:24:39;99435.31;;;15.33;83.82
73338;BME280;61575;49.908;35.556;2023-10-13T11:27:42;99434.88;;;15.23;83.33
73338;BME280;61575;49.908;35.556;2023-10-13T11:30:54;99439.28;;;15.31;82.92
73338;BME280;61575;49.908;35.556;2023-10-13T11:34:16;99446.16;;;15.33;83.06
73338;BME280;61575;49.908;35.556;2023-10-13T11:37:19;99457.50;;;15.09;81.22
73338;BME280;61575;49.908;35.556;2023-10-13T11:40:30;99452.13;;;15.22;81.41
73338;BME280;61575;49.908;35.556;2023-10-13T11:43:52;99448.78;;;15.14;80.63
73338;BME280;61575;49.908;35.556;2023-10-13T11:46:55;99459.00;;;15.18;80.57
73338;BME280;61575;49.908;35.556;2023-10-13T11:49:57;99467.69;;;15.14;78.79
73338;BME280;61575;49.908;35.556;2023-10-13T11:53:00;99461.88;;;15.10;79.00
73338;BME280;61575;49.908;35.556;2023-10-13T11:56:02;99466.94;;;15.26;79.67
73338;BME280;61575;49.908;35.556;2023-10-13T11:59:11;99461.56;;;15.33;79.46
73338;BME280;61575;49.908;35.556;2023-10-13T12:02:20;99468.47;;;15.49;79.82
73338;BME280;61575;49.908;35.556;2023-10-13T12:05:31;99458.53;;;15.56;78.66
73338;BME280;61575;49.908;35.556;2023-10-13T12:08:50;99472.44;;;15.46;77.85
73338;BME280;61575;49.908;35.556;2023-10-13T12:11:54;99466.66;;;15.56;77.72
73338;BME280;61575;49.908;35.556;2023-10-13T12:15:01;99468.88;;;15.46;77.19
73338;BME280;61575;49.908;35.556;2023-10-13T12:18:11;99463.66;;;15.37;77.08
73338;BME280;61575;49.908;35.556;2023-10-13T12:21:16;99461.53;;;15.26;76.12
73338;BME280;61575;49.908;35.556;2023-10-13T12:27:38;99461.97;;;15.36;76.60
73338;BME280;61575;49.908;35.556;2023-10-13T12:31:04;99468.88;;;15.39;76.63
73338;BME280;61575;49.908;35.556;2023-10-13T12:34:09;99464.72;;;15.43;76.88
73338;BME280;61575;49.908;35.556;2023-10-13T12:37:20;99463.03;;;15.42;76.31
73338;BME280;61575;49.908;35.556;2023-10-13T12:40:38;99470.13;;;15.43;76.36
73338;BME280;61575;49.908;35.556;2023-10-13T12:43:58;99469.06;;;15.37;76.32
73338;BME280;61575;49.908;35.556;2023-10-13T12:47:19;99468.19;;;15.30;76.21
73338;BME280;61575;49.908;35.556;2023-10-13T12:50:39;99465.22;;;15.19;75.85
73338;BME280;61575;49.908;35.556;2023-10-13T12:54:00;99464.56;;;15.10;76.19
73338;BME280;61575;49.908;35.556;2023-10-13T12:57:28;99469.09;;;15.03;76.20
73338;BME280;61575;49.908;35.556;2023-10-13T13:00:32;99461.63;;;15.05;76.19
73338;BME280;61575;49.908;35.556;2023-10-13T13:03:35;99470.56;;;15.05;76.31
73338;BME280;61575;49.908;35.556;2023-10-13T13:06:37;99471.41;;;15.06;76.43
73338;BME280;61575;49.908;35.556;2023-10-13T13:09:42;99474.94;;;15.06;76.35
73338;BME280;61575;49.908;35.556;2023-10-13T13:12:44;99464.34;;;15.05;76.25
73338;BME280;61575;49.908;35.556;2023-10-13T13:15:46;99472.28;;;15.13;76.02
73338;BME280;61575;49.908;35.556;2023-10-13T13:18:48;99472.72;;;15.17;75.96
73338;BME280;61575;49.908;35.556;2023-10-13T13:21:50;99471.72;;;15.24;75.66
73338;BME280;61575;49.908;35.556;2023-10-13T13:24:52;99470.47;;;15.27;75.55
73338;BME280;61575;49.908;35.556;2023-10-13T13:27:54;99470.69;;;15.25;76.17
73338;BME280;61575;49.908;35.556;2023-10-13T13:30:56;99475.19;;;15.12;76.04
73338;BME280;61575;49.908;35.556;2023-10-13T13:33:58;99480.59;;;15.12;75.81
73338;BME280;61575;49.908;35.556;2023-10-13T13:37:00;99486.59;;;15.07;76.04
73338;BME280;61575;49.908;35.556;2023-10-13T13:40:06;99480.53;;;14.98;76.33
73338;BME280;61575;49.908;35.556;2023-10-13T13:43:24;99485.25;;;14.90;76.57
73338;BME280;61575;49.908;35.556;2023-10-13T13:46:56;99481.44;;;14.77;76.94
73338;BME280;61575;49.908;35.556;2023-10-13T13:49:58;99483.66;;;14.67;77.28
73338;BME280;61575;49.908;35.556;2023-10-13T13:53:00;99489.78;;;14.55;77.73
73338;BME280;61575;49.908;35.556;2023-10-13T13:56:03;99487.44;;;14.45;78.20
73338;BME280;61575;49.908;35.556;2023-10-13T13:59:05;99490.06;;;14.38;78.40
73338;BME280;61575;49.908;35.556;2023-10-13T14:02:11;99495.44;;;14.32;78.49
73338;BME280;61575;49.908;35.556;2023-10-13T14:05:22;99496.97;;;14.20;78.82
73338;BME280;61575;49.908;35.556;2023-10-13T14:08:25;99498.97;;;14.11;79.22
73338;BME280;61575;49.908;35.556;2023-10-13T14:11:32;99510.09;;;14.01;79.23
73338;BME280;61575;49.908;35.556;2023-10-13T14:14:40;99502.94;;;13.94;79.42
73338;BME280;61575;49.908;35.556;2023-10-13T14:17:49;99506.16;;;13.83;79.55
73338;BME280;61575;49.908;35.556;2023-10-13T14:20:51;99510.66;;;13.75;79.77
73338;BME280;61575;49.908;35.556;2023-10-13T14:23:53;99514.28;;;13.68;80.30
73338;BME280;61575;49.908;35.556;2023-10-13T14:26:59;99514.78;;;13.57;80.73
73338;BME280;61575;49.908;35.556;2023-10-13T14:30:09;99506.34;;;13.45;80.42
73338;BME280;61575;49.908;35.556;2023-10-13T14:33:11;99510.34;;;13.34;80.29
73338;BME280;61575;49.908;35.556;2023-10-13T14:36:14;99520.47;;;13.17;81.20
73338;BME280;61575;49.908;35.556;2023-10-13T14:39:21;99519.53;;;13.10;81.16
73338;BME280;61575;49.908;35.556;2023-10-13T14:42:27;99525.22;;;13.01;81.65
73338;BME280;61575;49.908;35.556;2023-10-13T14:45:29;99533.09;;;12.88;82.04
73338;BME280;61575;49.908;35.556;2023-10-13T14:48:31;99524.44;;;12.77;81.56
73338;BME280;61575;49.908;35.556;2023-10-13T14:51:33;99524.06;;;12.66;81.74
73338;BME280;61575;49.908;35.556;2023-10-13T14:54:35;99526.34;;;12.54;81.70
73338;BME280;61575;49.908;35.556;2023-10-13T14:57:37;99530.16;;;12.45;81.79
73338;BME280;61575;49.908;35.556;2023-10-13T15:00:39;99540.16;;;12.36;82.32
73338;BME280;61575;49.908;35.556;2023-10-13T15:03:48;99538.78;;;12.17;82.43
73338;BME280;61575;49.908;35.556;2023-10-13T15:06:51;99550.94;;;12.05;82.54
73338;BME280;61575;49.908;35.556;2023-10-13T15:09:53;99553.03;;;11.95;82.76
73338;BME280;61575;49.908;35.556;2023-10-13T15:12:58;99558.16;;;11.82;82.80
73338;BME280;61575;49.908;35.556;2023-10-13T15:16:15;99557.53;;;11.72;82.74
73338;BME280;61575;49.908;35.556;2023-10-13T15:19:18;99559.25;;;11.65;82.96
73338;BME280;61575;49.908;35.556;2023-10-13T15:22:21;99566.69;;;11.54;82.66
73338;BME280;61575;49.908;35.556;2023-10-13T15:25:27;99566.06;;;11.44;83.67
73338;BME280;61575;49.908;35.556;2023-10-13T15:28:31;99569.50;;;11.30;83.83
73338;BME280;61575;49.908;35.556;2023-10-13T15:31:33;99575.91;;;11.21;83.52
73338;BME280;61575;49.908;35.556;2023-10-13T15:34:35;99570.03;;;11.17;83.30
73338;BME280;61575;49.908;35.556;2023-10-13T15:37:39;99580.81;;;11.09;83.18
73338;BME280;61575;49.908;35.556;2023-10-13T15:40:43;99581.00;;;11.00;83.70
73338;BME280;61575;49.908;35.556;2023-10-13T15:43:46;99585.03;;;10.87;84.28
73338;BME280;61575;49.908;35.556;2023-10-13T15:46:55;99581.88;;;10.76;84.71
73338;BME280;61575;49.908;35.556;2023-10-13T15:50:00;99587.56;;;10.73;84.64
73338;BME280;61575;49.908;35.556;2023-10-13T15:53:06;99596.13;;;10.68;85.10
73338;BME280;61575;49.908;35.556;2023-10-13T15:56:09;99604.66;;;10.64;85.98
73338;BME280;61575;49.908;35.556;2023-10-13T15:59:14;99610.72;;;10.57;85.74
73338;BME280;61575;49.908;35.556;2023-10-13T16:02:16;99607.69;;;10.44;85.78
73338;BME280;61575;49.908;35.556;2023-10-13T16:05:22;99610.53;;;10.35;85.32
73338;BME280;61575;49.908;35.556;2023-10-13T16:08:25;99611.19;;;10.29;85.22
73338;BME280;61575;49.908;35.556;2023-10-13T16:11:27;99610.00;;;10.15;85.62
73338;BME280;61575;49.908;35.556;2023-10-13T16:14:29;99609.97;;;10.07;85.20
73338;BME280;61575;49.908;35.556;2023-10-13T16:17:37;99604.78;;;10.05;84.90
73338;BME280;61575;49.908;35.556;2023-10-13T16:20:40;99611.16;;;10.04;85.46
73338;BME280;61575;49.908;35.556;2023-10-13T16:23:46;99620.38;;;10.02;85.39
73338;BME280;61575;49.908;35.556;2023-10-13T16:26:51;99619.00;;;9.89;85.71
73338;BME280;61575;49.908;35.556;2023-10-13T16:30:03;99625.53;;;9.87;86.05
73338;BME280;61575;49.908;35.556;2023-10-13T16:33:05;99623.50;;;9.81;85.87